N205CV LIME-EDDS
Flight info
| Callsign | N205CV |
|---|---|
| Flight time | N/A |
| Altitude | 24000 |
| Route | LEGLO1PXDILEB1D/28 DILEB DCT ABREG DCT REUTL REUTL5A |
| Aircraft | C750/M-SBDE3FGHRWXY/S |
Departure
| Time | 2026-05-05 16:34 |
|---|---|
| Airport | Il Caravaggio International Airport (LIME) |
Arrival
| Time | N/A |
|---|---|
| Airport | Stuttgart Airport (EDDS) |
| Time | Latitude | Longitude | Altitude | Speed | Heading |
|---|---|---|---|---|---|
| 2026-05-05 16:11 | 45.67153 | 9.70208 | 784 ft | 0 kts | 194° |
| 2026-05-05 16:24 | 45.67137 | 9.70202 | 784 ft | 4 kts | 194° |
| 2026-05-05 16:25 | 45.67100 | 9.70188 | 784 ft | 7 kts | 194° |
| 2026-05-05 16:25 | 45.67055 | 9.70219 | 784 ft | 0 kts | 99° |
| 2026-05-05 16:26 | 45.67057 | 9.70227 | 784 ft | 0 kts | 48° |
| 2026-05-05 16:26 | 45.67064 | 9.70170 | 784 ft | 7 kts | 283° |
| 2026-05-05 16:27 | 45.67079 | 9.70090 | 784 ft | 10 kts | 285° |
| 2026-05-05 16:27 | 45.67100 | 9.69978 | 784 ft | 13 kts | 285° |
| 2026-05-05 16:27 | 45.67115 | 9.69863 | 784 ft | 5 kts | 223° |
| 2026-05-05 16:27 | 45.67080 | 9.69889 | 784 ft | 7 kts | 151° |
| 2026-05-05 16:28 | 45.67024 | 9.69931 | 784 ft | 11 kts | 155° |
| 2026-05-05 16:28 | 45.66948 | 9.69985 | 784 ft | 14 kts | 152° |
| 2026-05-05 16:28 | 45.66852 | 9.70054 | 784 ft | 17 kts | 153° |
| 2026-05-05 16:28 | 45.66750 | 9.70128 | 784 ft | 14 kts | 153° |
| 2026-05-05 16:29 | 45.66695 | 9.70254 | 784 ft | 17 kts | 104° |
| 2026-05-05 16:29 | 45.66664 | 9.70434 | 784 ft | 20 kts | 104° |
| 2026-05-05 16:29 | 45.66627 | 9.70624 | 784 ft | 16 kts | 103° |
| 2026-05-05 16:29 | 45.66599 | 9.70776 | 784 ft | 15 kts | 104° |
| 2026-05-05 16:30 | 45.66572 | 9.70919 | 784 ft | 15 kts | 104° |
| 2026-05-05 16:30 | 45.66547 | 9.71054 | 784 ft | 14 kts | 105° |
| 2026-05-05 16:30 | 45.66516 | 9.71177 | 784 ft | 13 kts | 116° |
| 2026-05-05 16:30 | 45.66488 | 9.71291 | 784 ft | 12 kts | 106° |
| 2026-05-05 16:31 | 45.66468 | 9.71400 | 784 ft | 11 kts | 105° |
| 2026-05-05 16:31 | 45.66449 | 9.71502 | 784 ft | 10 kts | 105° |
| 2026-05-05 16:31 | 45.66437 | 9.71598 | 784 ft | 9 kts | 82° |
| 2026-05-05 16:31 | 45.66450 | 9.71684 | 784 ft | 8 kts | 77° |
| 2026-05-05 16:32 | 45.66465 | 9.71762 | 784 ft | 8 kts | 74° |
| 2026-05-05 16:32 | 45.66479 | 9.71835 | 784 ft | 7 kts | 74° |
| 2026-05-05 16:32 | 45.66498 | 9.71899 | 784 ft | 7 kts | 50° |
| 2026-05-05 16:32 | 45.66536 | 9.71925 | 784 ft | 6 kts | 12° |
| 2026-05-05 16:33 | 45.66559 | 9.71901 | 784 ft | 4 kts | 279° |
| 2026-05-05 16:33 | 45.66563 | 9.71881 | 784 ft | 0 kts | 284° |
| 2026-05-05 16:33 | 45.66575 | 9.71817 | 784 ft | 34 kts | 284° |
| 2026-05-05 16:33 | 45.66742 | 9.70917 | 784 ft | 143 kts | 284° |
| 2026-05-05 16:34 | 45.67035 | 9.69419 | 1273 ft | 158 kts | 287° |
| 2026-05-05 16:34 | 45.67352 | 9.67894 | 2021 ft | 168 kts | 284° |
| 2026-05-05 16:34 | 45.67207 | 9.66174 | 2511 ft | 184 kts | 240° |
| 2026-05-05 16:34 | 45.66277 | 9.65019 | 3333 ft | 174 kts | 204° |
| 2026-05-05 16:35 | 45.65194 | 9.64204 | 4187 ft | 175 kts | 212° |
| 2026-05-05 16:35 | 45.64383 | 9.62902 | 5049 ft | 174 kts | 228° |
| 2026-05-05 16:35 | 45.63557 | 9.61544 | 5620 ft | 193 kts | 227° |
| 2026-05-05 16:35 | 45.62588 | 9.60068 | 6197 ft | 205 kts | 223° |
| 2026-05-05 16:36 | 45.61599 | 9.58670 | 7369 ft | 193 kts | 225° |
| 2026-05-05 16:36 | 45.60655 | 9.57240 | 8167 ft | 205 kts | 224° |
| 2026-05-05 16:36 | 45.59574 | 9.55790 | 8953 ft | 218 kts | 222° |
| 2026-05-05 16:36 | 45.58388 | 9.54486 | 10027 ft | 220 kts | 204° |
| 2026-05-05 16:37 | 45.56826 | 9.54308 | 10704 ft | 236 kts | 174° |
| 2026-05-05 16:37 | 45.55223 | 9.55205 | 11090 ft | 270 kts | 148° |
| 2026-05-05 16:37 | 45.53967 | 9.57475 | 11088 ft | 318 kts | 118° |
| 2026-05-05 16:37 | 45.53530 | 9.60718 | 11320 ft | 349 kts | 91° |
| 2026-05-05 16:38 | 45.54173 | 9.64099 | 11943 ft | 361 kts | 63° |
| 2026-05-05 16:38 | 45.55682 | 9.66923 | 12887 ft | 362 kts | 44° |
| 2026-05-05 16:38 | 45.57723 | 9.69129 | 13249 ft | 376 kts | 33° |
| 2026-05-05 16:38 | 45.59924 | 9.71319 | 13456 ft | 396 kts | 34° |
| 2026-05-05 16:39 | 45.62170 | 9.73588 | 14309 ft | 392 kts | 33° |
| 2026-05-05 16:39 | 45.64502 | 9.75183 | 14963 ft | 375 kts | 15° |
| 2026-05-05 16:39 | 45.67152 | 9.75812 | 15065 ft | 391 kts | 357° |
| 2026-05-05 16:39 | 45.69822 | 9.75326 | 15466 ft | 392 kts | 342° |
| 2026-05-05 16:40 | 45.72489 | 9.74470 | 16247 ft | 393 kts | 345° |
| 2026-05-05 16:40 | 45.75180 | 9.73725 | 17065 ft | 394 kts | 343° |
| 2026-05-05 16:40 | 45.77855 | 9.72843 | 17856 ft | 397 kts | 341° |
| 2026-05-05 16:40 | 45.80556 | 9.71838 | 18397 ft | 407 kts | 340° |
| 2026-05-05 16:41 | 45.83344 | 9.70896 | 18936 ft | 416 kts | 342° |
| 2026-05-05 16:41 | 45.86137 | 9.70080 | 19767 ft | 401 kts | 343° |
| 2026-05-05 16:41 | 45.88920 | 9.69243 | 19933 ft | 420 kts | 342° |
| 2026-05-05 16:41 | 45.91788 | 9.68285 | 20571 ft | 422 kts | 341° |
| 2026-05-05 16:42 | 45.94638 | 9.67239 | 21415 ft | 423 kts | 340° |
| 2026-05-05 16:42 | 45.97481 | 9.66172 | 22167 ft | 426 kts | 341° |
| 2026-05-05 16:42 | 46.00393 | 9.65210 | 22846 ft | 432 kts | 342° |
| 2026-05-05 16:42 | 46.03347 | 9.64305 | 23420 ft | 436 kts | 343° |
| 2026-05-05 16:43 | 46.06310 | 9.63327 | 23937 ft | 439 kts | 341° |
| 2026-05-05 16:43 | 46.09314 | 9.62279 | 23998 ft | 446 kts | 341° |
| 2026-05-05 16:43 | 46.12318 | 9.61270 | 23995 ft | 440 kts | 342° |
| 2026-05-05 16:43 | 46.15312 | 9.60299 | 24074 ft | 444 kts | 342° |
| 2026-05-05 16:44 | 46.18318 | 9.59301 | 24801 ft | 443 kts | 342° |
| 2026-05-05 16:44 | 46.21337 | 9.58275 | 25277 ft | 448 kts | 341° |
| 2026-05-05 16:44 | 46.24391 | 9.57244 | 25847 ft | 451 kts | 341° |
| 2026-05-05 16:44 | 46.27462 | 9.56223 | 26350 ft | 456 kts | 341° |
| 2026-05-05 16:45 | 46.30583 | 9.55260 | 26861 ft | 464 kts | 345° |
| 2026-05-05 16:45 | 46.33820 | 9.54859 | 27421 ft | 471 kts | 351° |
| 2026-05-05 16:45 | 46.37116 | 9.54590 | 27962 ft | 475 kts | 351° |
| 2026-05-05 16:45 | 46.40427 | 9.54278 | 28493 ft | 479 kts | 350° |
| 2026-05-05 16:46 | 46.43774 | 9.53958 | 28975 ft | 485 kts | 350° |
| 2026-05-05 16:46 | 46.47141 | 9.53667 | 29551 ft | 487 kts | 350° |
| 2026-05-05 16:46 | 46.50539 | 9.53381 | 29967 ft | 494 kts | 350° |
| 2026-05-05 16:46 | 46.53991 | 9.53066 | 29963 ft | 497 kts | 350° |
| 2026-05-05 16:47 | 46.60808 | 9.52450 | 29948 ft | 493 kts | 350° |
| 2026-05-05 16:47 | 46.67655 | 9.51839 | 29922 ft | 493 kts | 351° |
| 2026-05-05 16:48 | 46.74503 | 9.51221 | 29902 ft | 493 kts | 351° |
| 2026-05-05 16:48 | 46.81363 | 9.50587 | 29895 ft | 498 kts | 349° |
| 2026-05-05 16:49 | 46.88222 | 9.49663 | 29875 ft | 496 kts | 350° |
| 2026-05-05 16:49 | 46.95115 | 9.49237 | 29866 ft | 496 kts | 351° |
| 2026-05-05 16:50 | 47.01952 | 9.48510 | 29853 ft | 489 kts | 351° |
| 2026-05-05 16:50 | 47.08745 | 9.47961 | 29859 ft | 489 kts | 353° |
| 2026-05-05 16:51 | 47.15533 | 9.47320 | 29858 ft | 489 kts | 352° |
| 2026-05-05 16:51 | 47.22339 | 9.46717 | 29856 ft | 489 kts | 354° |
| 2026-05-05 16:52 | 47.29120 | 9.46101 | 29860 ft | 488 kts | 353° |
| 2026-05-05 16:52 | 47.35899 | 9.45482 | 29860 ft | 488 kts | 354° |
| 2026-05-05 16:53 | 47.42708 | 9.44865 | 29295 ft | 493 kts | 354° |
| 2026-05-05 16:53 | 47.46106 | 9.44552 | 28732 ft | 485 kts | 354° |
| 2026-05-05 16:53 | 47.49455 | 9.44249 | 28046 ft | 478 kts | 354° |
| 2026-05-05 16:54 | 47.52741 | 9.43952 | 27374 ft | 471 kts | 354° |
| 2026-05-05 16:54 | 47.55991 | 9.43652 | 26720 ft | 465 kts | 354° |
| 2026-05-05 16:54 | 47.59212 | 9.43355 | 26079 ft | 460 kts | 354° |
| 2026-05-05 16:54 | 47.62380 | 9.43065 | 25456 ft | 455 kts | 354° |
| 2026-05-05 16:55 | 47.65529 | 9.42776 | 24849 ft | 451 kts | 355° |
| 2026-05-05 16:55 | 47.68657 | 9.42488 | 24253 ft | 447 kts | 355° |
| 2026-05-05 16:55 | 47.71738 | 9.42205 | 23671 ft | 442 kts | 355° |
| 2026-05-05 16:55 | 47.74796 | 9.41923 | 23029 ft | 438 kts | 355° |
| 2026-05-05 16:56 | 47.77821 | 9.41644 | 22352 ft | 433 kts | 354° |
| 2026-05-05 16:56 | 47.80813 | 9.41366 | 21690 ft | 430 kts | 355° |
| 2026-05-05 16:56 | 47.83783 | 9.41091 | 21026 ft | 425 kts | 355° |
| 2026-05-05 16:56 | 47.86726 | 9.40819 | 20391 ft | 421 kts | 355° |
| 2026-05-05 16:57 | 47.89632 | 9.40549 | 19770 ft | 417 kts | 355° |
| 2026-05-05 16:57 | 47.92516 | 9.40281 | 19156 ft | 413 kts | 355° |
| 2026-05-05 16:57 | 47.95375 | 9.40015 | 18568 ft | 410 kts | 355° |
| 2026-05-05 16:57 | 47.98205 | 9.39753 | 17958 ft | 406 kts | 355° |
| 2026-05-05 16:58 | 48.01010 | 9.39491 | 17294 ft | 402 kts | 355° |
| 2026-05-05 16:58 | 48.03786 | 9.39233 | 16633 ft | 397 kts | 355° |
| 2026-05-05 16:58 | 48.06531 | 9.38977 | 16014 ft | 394 kts | 354° |
| 2026-05-05 16:58 | 48.09245 | 9.38725 | 15388 ft | 389 kts | 354° |
| 2026-05-05 16:59 | 48.11941 | 9.38987 | 14725 ft | 388 kts | 7° |
| 2026-05-05 16:59 | 48.14569 | 9.39827 | 14123 ft | 384 kts | 12° |
| 2026-05-05 16:59 | 48.17146 | 9.40826 | 13608 ft | 380 kts | 13° |
| 2026-05-05 16:59 | 48.19679 | 9.41864 | 13210 ft | 378 kts | 13° |
| 2026-05-05 17:00 | 48.22214 | 9.42923 | 12821 ft | 378 kts | 13° |
| 2026-05-05 17:00 | 48.24743 | 9.43987 | 12435 ft | 377 kts | 13° |
| 2026-05-05 17:00 | 48.27263 | 9.45059 | 12057 ft | 375 kts | 13° |
| 2026-05-05 17:00 | 48.29759 | 9.46124 | 11830 ft | 369 kts | 13° |
| 2026-05-05 17:01 | 48.32202 | 9.47168 | 11830 ft | 372 kts | 13° |
| 2026-05-05 17:01 | 48.34699 | 9.48233 | 11734 ft | 376 kts | 13° |
| 2026-05-05 17:01 | 48.37222 | 9.49309 | 11281 ft | 374 kts | 13° |
| 2026-05-05 17:01 | 48.39660 | 9.50354 | 10780 ft | 355 kts | 13° |
| 2026-05-05 17:02 | 48.41966 | 9.51357 | 10277 ft | 335 kts | 13° |
| 2026-05-05 17:02 | 48.44154 | 9.52318 | 9778 ft | 321 kts | 13° |
| 2026-05-05 17:02 | 48.46260 | 9.53257 | 9237 ft | 311 kts | 13° |
| 2026-05-05 17:02 | 48.48309 | 9.54182 | 8705 ft | 304 kts | 13° |
| 2026-05-05 17:03 | 48.50314 | 9.55091 | 8254 ft | 298 kts | 14° |
| 2026-05-05 17:03 | 48.52292 | 9.55985 | 7872 ft | 294 kts | 14° |
| 2026-05-05 17:03 | 48.54225 | 9.56847 | 7822 ft | 290 kts | 14° |
| 2026-05-05 17:03 | 48.56195 | 9.57719 | 7587 ft | 299 kts | 14° |
| 2026-05-05 17:04 | 48.58199 | 9.58597 | 7117 ft | 299 kts | 14° |
| 2026-05-05 17:04 | 48.60196 | 9.59315 | 6587 ft | 292 kts | 2° |
| 2026-05-05 17:04 | 48.62183 | 9.58996 | 5989 ft | 284 kts | 345° |
| 2026-05-05 17:04 | 48.64074 | 9.58349 | 5708 ft | 275 kts | 343° |
| 2026-05-05 17:05 | 48.65897 | 9.57716 | 5463 ft | 262 kts | 343° |
| 2026-05-05 17:05 | 48.67627 | 9.57133 | 5208 ft | 249 kts | 344° |
| 2026-05-05 17:05 | 48.69290 | 9.56570 | 4977 ft | 241 kts | 343° |
| 2026-05-05 17:05 | 48.70884 | 9.56039 | 4978 ft | 228 kts | 343° |
| 2026-05-05 17:06 | 48.72258 | 9.55052 | 4901 ft | 219 kts | 310° |
| 2026-05-05 17:06 | 48.72945 | 9.53084 | 4965 ft | 200 kts | 285° |
| 2026-05-05 17:06 | 48.73338 | 9.51187 | 4903 ft | 184 kts | 283° |
| 2026-05-05 17:06 | 48.73727 | 9.49342 | 4634 ft | 184 kts | 284° |
| 2026-05-05 17:07 | 48.73933 | 9.47481 | 4243 ft | 178 kts | 258° |
| 2026-05-05 17:07 | 48.73502 | 9.45762 | 4056 ft | 174 kts | 248° |
| 2026-05-05 17:07 | 48.73125 | 9.44019 | 3842 ft | 177 kts | 251° |
| 2026-05-05 17:07 | 48.72773 | 9.42221 | 3589 ft | 177 kts | 253° |
| 2026-05-05 17:08 | 48.72450 | 9.40513 | 3357 ft | 157 kts | 253° |
| 2026-05-05 17:08 | 48.72164 | 9.38998 | 3158 ft | 146 kts | 252° |
| 2026-05-05 17:08 | 48.71883 | 9.37510 | 2969 ft | 150 kts | 252° |
| 2026-05-05 17:08 | 48.71592 | 9.35976 | 2769 ft | 148 kts | 252° |
| 2026-05-05 17:09 | 48.71302 | 9.34448 | 2587 ft | 156 kts | 253° |
| 2026-05-05 17:09 | 48.71019 | 9.32940 | 2378 ft | 138 kts | 252° |
| 2026-05-05 17:09 | 48.70771 | 9.31627 | 2183 ft | 124 kts | 253° |
| 2026-05-05 17:09 | 48.70535 | 9.30376 | 2019 ft | 126 kts | 254° |
| 2026-05-05 17:10 | 48.70287 | 9.29062 | 1844 ft | 133 kts | 255° |
| 2026-05-05 17:10 | 48.70117 | 9.28162 | 1727 ft | 137 kts | 255° |
| 2026-05-05 17:10 | 48.69841 | 9.26747 | 1503 ft | 142 kts | 253° |
| 2026-05-05 17:10 | 48.69571 | 9.25320 | 1320 ft | 140 kts | 254° |
| 2026-05-05 17:11 | 48.69310 | 9.23893 | 1402 ft | 148 kts | 255° |
| 2026-05-05 17:11 | 48.69012 | 9.22283 | 1811 ft | 172 kts | 254° |
| 2026-05-05 17:11 | 48.68645 | 9.20427 | 2452 ft | 195 kts | 254° |
| 2026-05-05 17:11 | 48.68293 | 9.18357 | 3205 ft | 211 kts | 255° |
| 2026-05-05 17:12 | 48.67928 | 9.16124 | 3991 ft | 225 kts | 255° |
| 2026-05-05 17:12 | 48.67548 | 9.13769 | 4793 ft | 236 kts | 255° |
| 2026-05-05 17:12 | 48.66734 | 9.11491 | 4962 ft | 253 kts | 227° |
| 2026-05-05 17:12 | 48.65286 | 9.10271 | 4980 ft | 230 kts | 200° |
| 2026-05-05 17:13 | 48.63747 | 9.10449 | 4914 ft | 226 kts | 159° |
| 2026-05-05 17:13 | 48.62678 | 9.12179 | 4914 ft | 235 kts | 117° |
| 2026-05-05 17:13 | 48.62278 | 9.14609 | 5016 ft | 246 kts | 103° |
| 2026-05-05 17:13 | 48.61953 | 9.17179 | 5019 ft | 249 kts | 103° |
| 2026-05-05 17:14 | 48.61623 | 9.19760 | 5007 ft | 250 kts | 104° |
| 2026-05-05 17:14 | 48.61397 | 9.22352 | 4950 ft | 252 kts | 89° |
| 2026-05-05 17:14 | 48.61810 | 9.25086 | 5014 ft | 283 kts | 75° |
| 2026-05-05 17:14 | 48.62396 | 9.27952 | 5003 ft | 285 kts | 73° |
| 2026-05-05 17:15 | 48.62982 | 9.30768 | 5001 ft | 285 kts | 73° |
| 2026-05-05 17:15 | 48.63587 | 9.33661 | 5000 ft | 284 kts | 73° |
| 2026-05-05 17:15 | 48.64181 | 9.36515 | 5001 ft | 285 kts | 73° |
| 2026-05-05 17:15 | 48.64772 | 9.39365 | 4986 ft | 275 kts | 73° |
| 2026-05-05 17:16 | 48.65313 | 9.41969 | 4974 ft | 254 kts | 73° |
| 2026-05-05 17:16 | 48.65836 | 9.44490 | 4978 ft | 250 kts | 73° |
| 2026-05-05 17:16 | 48.66362 | 9.47011 | 4980 ft | 252 kts | 73° |
| 2026-05-05 17:16 | 48.66887 | 9.49536 | 4980 ft | 252 kts | 73° |
| 2026-05-05 17:17 | 48.67498 | 9.52023 | 4929 ft | 255 kts | 59° |
| 2026-05-05 17:17 | 48.68830 | 9.53705 | 4900 ft | 251 kts | 19° |
| 2026-05-05 17:17 | 48.70512 | 9.54214 | 4999 ft | 247 kts | 4° |
| 2026-05-05 17:17 | 48.72226 | 9.54365 | 4938 ft | 245 kts | 347° |
| 2026-05-05 17:18 | 48.73639 | 9.53177 | 4941 ft | 229 kts | 306° |
| 2026-05-05 17:18 | 48.74285 | 9.51086 | 4798 ft | 220 kts | 279° |
| 2026-05-05 17:18 | 48.74080 | 9.48846 | 4509 ft | 209 kts | 250° |
| 2026-05-05 17:18 | 48.73649 | 9.46863 | 4280 ft | 189 kts | 252° |
| 2026-05-05 17:19 | 48.73300 | 9.45002 | 3973 ft | 180 kts | 252° |
| 2026-05-05 17:19 | 48.72959 | 9.43197 | 3715 ft | 179 kts | 252° |
| 2026-05-05 17:19 | 48.72619 | 9.41396 | 3491 ft | 177 kts | 253° |
| 2026-05-05 17:19 | 48.72278 | 9.39590 | 3249 ft | 179 kts | 253° |
| 2026-05-05 17:20 | 48.71938 | 9.37794 | 3012 ft | 174 kts | 253° |
| 2026-05-05 17:20 | 48.71624 | 9.36127 | 2783 ft | 153 kts | 252° |
| 2026-05-05 17:20 | 48.71350 | 9.34671 | 2591 ft | 137 kts | 253° |
| 2026-05-05 17:20 | 48.71103 | 9.33360 | 2413 ft | 122 kts | 252° |
| 2026-05-05 17:21 | 48.70875 | 9.32154 | 2261 ft | 118 kts | 252° |
| 2026-05-05 17:21 | 48.70648 | 9.30952 | 2106 ft | 120 kts | 253° |
| 2026-05-05 17:21 | 48.70415 | 9.29715 | 1931 ft | 124 kts | 254° |
| 2026-05-05 17:22 | 48.69914 | 9.27111 | 1563 ft | 136 kts | 253° |
| 2026-05-05 17:22 | 48.69652 | 9.25734 | 1380 ft | 136 kts | 254° |
| 2026-05-05 17:22 | 48.69399 | 9.24373 | 1222 ft | 132 kts | 255° |